createdAt,value
2017-05-22T00:00:45.535Z,74.90
2017-05-22T00:03:12.479Z,75.00
2017-05-22T00:05:39.428Z,74.80
2017-05-22T00:08:06.353Z,74.70
2017-05-22T00:10:33.268Z,74.90
2017-05-22T00:13:00.240Z,75.00
2017-05-22T00:15:27.164Z,74.90
2017-05-22T00:17:54.088Z,75.20
2017-05-22T00:20:21.056Z,75.40
2017-05-22T00:22:47.977Z,75.40
2017-05-22T00:25:14.949Z,75.30
2017-05-22T00:27:41.937Z,75.20
2017-05-22T00:30:08.881Z,76.20
2017-05-22T00:32:35.821Z,75.10
2017-05-22T00:35:02.786Z,75.40
2017-05-22T00:37:29.713Z,76.10
2017-05-22T00:39:56.640Z,75.60
2017-05-22T00:42:23.595Z,75.40
2017-05-22T00:44:50.552Z,75.80
2017-05-22T00:47:17.476Z,75.90
2017-05-22T00:49:44.397Z,75.80
2017-05-22T00:52:11.376Z,75.80
2017-05-22T00:54:38.306Z,76.20
2017-05-22T00:57:05.222Z,76.00
2017-05-22T00:59:32.219Z,75.80
2017-05-22T01:01:59.152Z,76.10
2017-05-22T01:04:26.096Z,76.20
2017-05-22T01:06:53.040Z,76.20
2017-05-22T01:09:19.957Z,76.00
2017-05-22T01:11:46.910Z,76.20
2017-05-22T01:14:13.893Z,76.80
2017-05-22T01:16:40.812Z,76.10
2017-05-22T01:19:07.931Z,75.50
2017-05-22T01:21:34.852Z,75.80
2017-05-22T01:24:01.773Z,75.30
2017-05-22T01:26:28.751Z,75.30
2017-05-22T01:28:55.693Z,75.00
2017-05-22T01:31:22.697Z,75.10
2017-05-22T01:33:48.961Z,75.00
2017-05-22T01:36:16.006Z,76.40
2017-05-22T01:38:42.960Z,76.10
2017-05-22T01:41:09.944Z,76.10
2017-05-22T01:43:36.895Z,75.80
2017-05-22T01:46:03.849Z,76.40
2017-05-22T01:48:30.836Z,76.20
2017-05-22T01:50:57.776Z,76.70
2017-05-22T01:53:24.706Z,76.90
2017-05-22T01:55:51.675Z,76.90
2017-05-22T01:58:18.660Z,76.90
2017-05-22T02:00:45.579Z,76.90
2017-05-22T02:03:12.531Z,77.10
2017-05-22T02:05:39.462Z,77.20
2017-05-22T02:08:06.423Z,77.40
2017-05-22T02:10:33.366Z,77.50
2017-05-22T02:13:00.303Z,77.50
2017-05-22T02:15:27.330Z,77.90
2017-05-22T02:17:54.265Z,78.40
2017-05-22T02:20:21.209Z,78.50
2017-05-22T02:22:48.176Z,79.30
2017-05-22T02:25:15.160Z,79.30
2017-05-22T02:27:42.108Z,79.90
2017-05-22T02:30:09.098Z,80.40
2017-05-22T02:32:36.073Z,80.60
2017-05-22T02:35:03.012Z,80.30
2017-05-22T02:37:29.990Z,80.70
2017-05-22T02:39:56.916Z,81.50
2017-05-22T02:42:23.843Z,82.10
2017-05-22T02:44:50.802Z,82.90
2017-05-22T02:47:17.736Z,83.70
2017-05-22T02:49:44.677Z,83.40
2017-05-22T02:52:11.628Z,83.70
2017-05-22T02:54:38.555Z,84.70
2017-05-22T02:57:05.480Z,84.80
2017-05-22T02:59:32.469Z,84.40
2017-05-22T03:01:59.392Z,84.50
2017-05-22T03:04:26.305Z,85.10
2017-05-22T03:06:53.259Z,84.70
2017-05-22T03:09:20.197Z,84.80
2017-05-22T03:11:47.125Z,85.50
2017-05-22T03:14:14.089Z,85.10
2017-05-22T03:16:41.023Z,84.90
2017-05-22T03:19:07.941Z,85.10
2017-05-22T03:21:34.917Z,84.80
2017-05-22T03:24:01.860Z,85.30
2017-05-22T03:26:28.857Z,85.40
2017-05-22T03:28:55.828Z,85.70
2017-05-22T03:31:22.752Z,85.90
2017-05-22T03:33:49.671Z,86.90
2017-05-22T03:36:16.615Z,89.30
2017-05-22T03:38:43.576Z,89.30
2017-05-22T03:41:10.500Z,89.40
2017-05-22T03:43:37.418Z,88.60
2017-05-22T03:46:04.371Z,88.50
2017-05-22T03:48:31.322Z,88.50
2017-05-22T03:50:58.300Z,88.90
2017-05-22T03:53:25.249Z,89.40
2017-05-22T03:55:52.200Z,90.10
2017-05-22T03:58:19.140Z,90.60
2017-05-22T04:00:46.069Z,90.50
2017-05-22T04:03:13.020Z,90.60
2017-05-22T04:05:39.963Z,90.30
2017-05-22T04:08:06.932Z,90.40
2017-05-22T04:10:33.859Z,90.20
2017-05-22T04:13:00.796Z,90.60
2017-05-22T04:15:27.752Z,90.50
2017-05-22T04:17:54.681Z,90.30
2017-05-22T04:20:21.616Z,89.80
2017-05-22T04:22:48.617Z,88.60
2017-05-22T04:25:15.532Z,87.40
2017-05-22T04:27:42.453Z,86.80
2017-05-22T04:30:09.414Z,86.50
2017-05-22T04:32:36.596Z,86.40
2017-05-22T04:35:03.548Z,86.00
2017-05-22T04:37:30.477Z,84.00
2017-05-22T04:39:57.400Z,83.70
2017-05-22T04:42:24.433Z,83.20
2017-05-22T04:44:51.396Z,83.70
2017-05-22T04:47:18.312Z,83.00
2017-05-22T04:49:45.243Z,83.30
2017-05-22T04:52:12.255Z,83.30
2017-05-22T04:54:39.194Z,83.30
2017-05-22T04:57:06.156Z,83.00
2017-05-22T04:59:33.119Z,82.00
2017-05-22T05:02:00.040Z,80.60
2017-05-22T05:04:26.244Z,80.70
2017-05-22T05:06:53.219Z,79.20
2017-05-22T05:09:20.204Z,76.90
2017-05-22T05:11:47.170Z,77.90
2017-05-22T05:14:14.124Z,76.90
2017-05-22T05:16:41.145Z,76.20
2017-05-22T05:19:08.080Z,75.20
2017-05-22T05:21:34.995Z,74.30
2017-05-22T05:24:01.950Z,73.50
2017-05-22T05:26:28.880Z,73.70
2017-05-22T05:28:55.837Z,71.60
2017-05-22T05:31:22.828Z,71.60
2017-05-22T05:33:49.764Z,71.60
2017-05-22T05:36:16.723Z,71.00
2017-05-22T05:38:43.660Z,69.50
2017-05-22T05:41:10.584Z,69.20
2017-05-22T05:43:37.536Z,66.90
2017-05-22T05:46:04.521Z,67.10
2017-05-22T05:48:31.514Z,66.40
2017-05-22T05:50:58.440Z,66.60
2017-05-22T05:53:25.372Z,65.60
2017-05-22T05:55:52.337Z,64.30
2017-05-22T05:58:19.252Z,64.10
2017-05-22T06:00:46.189Z,64.40
2017-05-22T06:03:13.145Z,63.40
2017-05-22T06:05:40.076Z,61.80
2017-05-22T06:08:07.021Z,61.60
2017-05-22T06:10:33.981Z,61.90
2017-05-22T06:13:00.900Z,61.40
2017-05-22T06:15:27.821Z,60.60
2017-05-22T06:17:54.781Z,60.90
2017-05-22T06:20:21.747Z,59.90
2017-05-22T06:22:47.937Z,59.90
2017-05-22T06:25:14.919Z,59.90
2017-05-22T06:27:41.859Z,59.70
2017-05-22T06:30:08.832Z,59.50
2017-05-22T06:32:35.764Z,58.20
2017-05-22T06:35:02.700Z,57.80
2017-05-22T06:37:29.660Z,56.40
2017-05-22T06:39:56.672Z,56.70
2017-05-22T06:42:23.597Z,56.50
2017-05-22T06:44:50.531Z,55.80
2017-05-22T06:47:17.476Z,55.70
2017-05-22T06:49:44.423Z,55.20
2017-05-22T06:52:11.474Z,54.20
2017-05-22T06:54:38.413Z,53.30
2017-05-22T06:57:05.385Z,54.00
2017-05-22T06:59:32.328Z,53.30
2017-05-22T07:01:59.260Z,52.80
2017-05-22T07:04:26.244Z,52.30
2017-05-22T07:06:52.447Z,52.20
2017-05-22T07:09:19.400Z,50.40
2017-05-22T07:11:46.343Z,50.90
2017-05-22T07:14:13.338Z,49.80
2017-05-22T07:16:40.284Z,49.40
2017-05-22T07:19:07.236Z,49.40
2017-05-22T07:21:34.205Z,49.50
2017-05-22T07:24:01.165Z,49.00
2017-05-22T07:26:28.099Z,47.50
2017-05-22T07:28:55.164Z,46.20
2017-05-22T07:31:21.396Z,46.20
2017-05-22T07:33:48.353Z,45.90
2017-05-22T07:36:15.306Z,46.60
2017-05-22T07:38:42.228Z,46.10
2017-05-22T07:41:09.165Z,45.40
2017-05-22T07:43:36.118Z,45.90
2017-05-22T07:46:03.051Z,43.90
2017-05-22T07:48:30.024Z,44.00
2017-05-22T07:50:56.985Z,43.60
2017-05-22T07:53:23.944Z,45.60
2017-05-22T07:55:50.931Z,44.00
2017-05-22T07:58:17.901Z,42.90
2017-05-22T08:00:44.832Z,41.60
2017-05-22T08:03:11.819Z,40.90
2017-05-22T08:05:38.741Z,40.50
2017-05-22T08:08:05.667Z,39.80
2017-05-22T08:10:32.720Z,37.90
2017-05-22T08:12:59.681Z,38.50
2017-05-22T08:15:26.640Z,37.90
2017-05-22T08:17:53.605Z,38.50
2017-05-22T08:20:20.585Z,39.10
2017-05-22T08:22:47.520Z,38.10
2017-05-22T08:25:14.532Z,37.30
2017-05-22T08:27:41.628Z,36.80
2017-05-22T08:30:08.573Z,36.40
2017-05-22T08:32:35.513Z,36.20
2017-05-22T08:35:02.513Z,36.30
2017-05-22T08:37:29.461Z,35.30
2017-05-22T08:39:56.424Z,35.60
2017-05-22T08:42:23.441Z,35.10
2017-05-22T08:44:50.444Z,36.00
2017-05-22T08:47:17.432Z,35.90
2017-05-22T08:49:44.389Z,35.40
2017-05-22T08:52:11.321Z,33.70
2017-05-22T08:54:38.294Z,34.40
2017-05-22T08:57:05.211Z,33.40
2017-05-22T08:59:32.160Z,33.00
2017-05-22T09:01:59.111Z,31.50
2017-05-22T09:04:26.032Z,31.10
2017-05-22T09:06:53.009Z,31.80
2017-05-22T09:09:19.940Z,32.40
2017-05-22T09:11:46.880Z,32.20
2017-05-22T09:14:14.029Z,32.00
2017-05-22T09:16:40.964Z,32.80
2017-05-22T09:19:07.942Z,33.20
2017-05-22T09:21:34.915Z,31.40
2017-05-22T09:24:01.896Z,30.80
2017-05-22T09:26:28.836Z,30.60
2017-05-22T09:28:55.803Z,31.40
2017-05-22T09:31:22.732Z,32.30
2017-05-22T09:33:49.741Z,32.90
2017-05-22T09:36:16.699Z,34.70
2017-05-22T09:38:43.621Z,33.50
2017-05-22T09:41:10.614Z,33.50
2017-05-22T09:43:37.597Z,32.30
2017-05-22T09:46:04.539Z,30.60
2017-05-22T09:48:31.529Z,32.20
2017-05-22T09:50:58.504Z,32.70
2017-05-22T09:53:25.447Z,31.70
2017-05-22T09:55:52.422Z,30.40
2017-05-22T09:58:19.392Z,29.70
2017-05-22T10:00:46.315Z,30.50
2017-05-22T10:03:13.336Z,29.80
2017-05-22T10:05:40.285Z,29.80
2017-05-22T10:08:07.234Z,29.80
2017-05-22T10:10:34.192Z,29.40
2017-05-22T10:13:01.119Z,29.60
2017-05-22T10:15:28.048Z,30.00
2017-05-22T10:17:55.048Z,30.40
2017-05-22T10:20:22.021Z,30.40
2017-05-22T10:22:48.958Z,32.80
2017-05-22T10:25:15.914Z,32.30
2017-05-22T10:27:42.856Z,30.80
2017-05-22T10:30:09.781Z,30.80
2017-05-22T10:32:36.748Z,31.80
2017-05-22T10:35:03.690Z,32.60
2017-05-22T10:37:30.609Z,32.80
2017-05-22T10:39:57.761Z,33.50
2017-05-22T10:42:24.689Z,34.40
2017-05-22T10:44:51.616Z,33.90
2017-05-22T10:47:18.588Z,32.30
2017-05-22T10:49:45.516Z,31.30
2017-05-22T10:52:12.500Z,30.50
2017-05-22T10:54:39.459Z,29.70
2017-05-22T10:57:06.448Z,29.60
2017-05-22T10:59:33.410Z,29.80
2017-05-22T11:02:00.413Z,29.20
2017-05-22T11:04:27.364Z,29.90
2017-05-22T11:06:54.320Z,29.50
2017-05-22T11:09:21.301Z,30.00
2017-05-22T11:11:48.216Z,30.60
2017-05-22T11:14:15.205Z,31.00
2017-05-22T11:16:42.321Z,30.80
2017-05-22T11:19:09.257Z,31.30
2017-05-22T11:21:36.192Z,31.70
2017-05-22T11:24:03.126Z,32.50
2017-05-22T11:26:30.068Z,32.60
2017-05-22T11:28:57.085Z,32.40
2017-05-22T11:31:24.017Z,33.70
2017-05-22T11:33:50.197Z,33.70
2017-05-22T11:36:17.163Z,34.30
2017-05-22T11:38:44.110Z,36.00
2017-05-22T11:41:11.069Z,36.00
2017-05-22T11:43:37.988Z,36.30
2017-05-22T11:46:04.965Z,37.20
2017-05-22T11:48:31.920Z,36.40
2017-05-22T11:50:58.899Z,37.10
2017-05-22T11:53:25.821Z,37.20
2017-05-22T11:55:52.841Z,37.20
2017-05-22T11:58:19.836Z,37.80
2017-05-22T12:00:46.767Z,37.40
2017-05-22T12:03:13.696Z,38.20
2017-05-22T12:05:40.648Z,41.70
2017-05-22T12:08:07.589Z,40.30
2017-05-22T12:10:34.552Z,40.80
2017-05-22T12:13:01.484Z,39.80
2017-05-22T12:15:28.432Z,39.70
2017-05-22T12:17:55.352Z,40.90
2017-05-22T12:20:22.339Z,40.70
2017-05-22T12:22:49.256Z,40.60
2017-05-22T12:25:16.217Z,39.20
2017-05-22T12:27:43.214Z,39.40
2017-05-22T12:30:10.175Z,40.50
2017-05-22T12:32:37.097Z,38.30
2017-05-22T12:35:04.028Z,38.90
2017-05-22T12:37:31.312Z,39.20
2017-05-22T12:39:58.235Z,39.30
2017-05-22T12:42:24.420Z,39.30
2017-05-22T12:44:51.382Z,39.00
2017-05-22T12:47:18.297Z,39.20
2017-05-22T12:49:45.269Z,39.90
2017-05-22T12:52:11.456Z,39.90
2017-05-22T12:54:38.376Z,40.10
2017-05-22T12:57:05.326Z,40.60
2017-05-22T12:59:32.312Z,40.60
2017-05-22T13:01:59.246Z,40.30
2017-05-22T13:04:25.496Z,40.30
2017-05-22T13:06:52.424Z,40.70
2017-05-22T13:09:19.337Z,41.50
2017-05-22T13:11:46.291Z,41.70
2017-05-22T13:14:13.206Z,42.30
2017-05-22T13:16:40.157Z,40.40
2017-05-22T13:19:07.113Z,39.10
2017-05-22T13:21:34.043Z,40.50
2017-05-22T13:24:01.006Z,39.70
2017-05-22T13:26:27.937Z,40.20
2017-05-22T13:28:54.880Z,42.50
2017-05-22T13:31:21.826Z,42.20
2017-05-22T13:33:48.755Z,43.20
2017-05-22T13:36:15.745Z,44.30
2017-05-22T13:38:42.661Z,43.60
2017-05-22T13:41:09.585Z,43.50
2017-05-22T13:43:36.530Z,43.00
2017-05-22T13:46:03.464Z,42.40
2017-05-22T13:48:30.437Z,42.30
2017-05-22T13:50:57.356Z,43.00
2017-05-22T13:53:24.276Z,42.00
2017-05-22T13:55:51.243Z,42.00
2017-05-22T13:58:18.205Z,43.60
2017-05-22T14:00:45.162Z,43.60
2017-05-22T14:03:12.124Z,42.80
2017-05-22T14:05:39.039Z,43.00
2017-05-22T14:08:05.974Z,42.20
2017-05-22T14:10:32.967Z,42.90
2017-05-22T14:12:59.901Z,43.00
2017-05-22T14:15:26.831Z,43.00
2017-05-22T14:17:53.797Z,43.50
2017-05-22T14:20:20.732Z,42.30
2017-05-22T14:22:47.665Z,42.50
2017-05-22T14:25:14.653Z,41.50
2017-05-22T14:27:41.600Z,42.00
2017-05-22T14:30:08.568Z,41.90
2017-05-22T14:32:35.525Z,41.60
2017-05-22T14:35:02.457Z,41.50
2017-05-22T14:37:29.417Z,41.30
2017-05-22T14:39:56.364Z,41.50
2017-05-22T14:42:23.377Z,41.90
2017-05-22T14:44:50.339Z,41.70
2017-05-22T14:47:17.319Z,41.90
2017-05-22T14:49:44.279Z,42.00
2017-05-22T14:52:11.240Z,42.90
2017-05-22T14:54:38.183Z,42.20
2017-05-22T14:57:05.132Z,42.50
2017-05-22T14:59:32.178Z,42.30
2017-05-22T15:01:59.102Z,42.20
2017-05-22T15:04:26.033Z,41.80
2017-05-22T15:06:53.018Z,42.50
2017-05-22T15:09:19.948Z,43.30
2017-05-22T15:11:46.975Z,41.90
2017-05-22T15:14:13.903Z,41.90
2017-05-22T15:16:40.851Z,42.20
2017-05-22T15:19:07.821Z,41.60
2017-05-22T15:21:34.744Z,42.50
2017-05-22T15:24:01.688Z,43.00
2017-05-22T15:26:28.656Z,42.40
2017-05-22T15:28:55.654Z,41.80
2017-05-22T15:31:22.576Z,40.20
2017-05-22T15:33:49.531Z,40.90
2017-05-22T15:36:16.512Z,40.90
2017-05-22T15:38:43.440Z,41.80
2017-05-22T15:41:10.409Z,41.70
2017-05-22T15:43:37.333Z,41.10
2017-05-22T15:46:04.252Z,41.80
2017-05-22T15:48:31.222Z,41.30
2017-05-22T15:50:58.166Z,39.90
2017-05-22T15:53:25.084Z,39.70
2017-05-22T15:55:52.024Z,40.20
2017-05-22T15:58:18.953Z,40.20
2017-05-22T16:00:45.942Z,41.40
2017-05-22T16:03:12.933Z,41.10
2017-05-22T16:05:39.850Z,41.90
2017-05-22T16:08:06.792Z,41.80
2017-05-22T16:10:33.699Z,41.80
2017-05-22T16:13:00.701Z,40.80
2017-05-22T16:15:27.634Z,40.90
2017-05-22T16:17:54.555Z,41.40
2017-05-22T16:20:21.529Z,41.40
2017-05-22T16:22:48.597Z,41.00
2017-05-22T16:25:15.513Z,40.70
2017-05-22T16:27:42.736Z,40.30
2017-05-22T16:30:09.657Z,40.50
2017-05-22T16:32:36.646Z,41.90
2017-05-22T16:35:03.643Z,42.00
2017-05-22T16:37:30.581Z,42.50
2017-05-22T16:39:57.505Z,42.50
2017-05-22T16:42:24.913Z,41.90
2017-05-22T16:44:51.866Z,41.50
2017-05-22T16:47:18.814Z,41.00
2017-05-22T16:49:45.992Z,41.50
2017-05-22T16:52:12.936Z,41.90
2017-05-22T16:54:39.918Z,43.80
2017-05-22T16:57:06.905Z,45.10
2017-05-22T16:59:33.828Z,45.40
2017-05-22T17:02:00.755Z,45.80
2017-05-22T17:04:27.701Z,45.50
2017-05-22T17:06:54.633Z,46.50
2017-05-22T17:09:21.622Z,45.70
2017-05-22T17:11:48.557Z,45.70
2017-05-22T17:14:15.473Z,46.40
2017-05-22T17:16:42.440Z,46.50
2017-05-22T17:19:09.389Z,47.00
2017-05-22T17:21:36.311Z,47.20
2017-05-22T17:24:03.289Z,44.30
2017-05-22T17:26:30.287Z,43.90
2017-05-22T17:28:57.230Z,44.20
2017-05-22T17:31:24.233Z,44.50
2017-05-22T17:33:51.172Z,46.50
2017-05-22T17:36:18.118Z,47.30
2017-05-22T17:38:45.077Z,48.00
2017-05-22T17:41:12.052Z,48.40
2017-05-22T17:43:38.972Z,48.30
2017-05-22T17:46:05.200Z,48.10
2017-05-22T17:48:32.119Z,48.10
2017-05-22T17:50:59.068Z,48.40
2017-05-22T17:53:26.023Z,49.20
2017-05-22T17:55:52.977Z,49.70
2017-05-22T17:58:19.952Z,49.40
2017-05-22T18:00:46.876Z,49.30
2017-05-22T18:03:13.823Z,49.40
2017-05-22T18:05:40.793Z,49.80
2017-05-22T18:08:07.762Z,49.80
2017-05-22T18:10:34.721Z,49.60
2017-05-22T18:13:01.692Z,50.00
2017-05-22T18:15:28.646Z,50.10
2017-05-22T18:17:55.582Z,49.90
2017-05-22T18:20:22.633Z,49.60
2017-05-22T18:22:49.585Z,49.90
2017-05-22T18:25:16.566Z,50.00
2017-05-22T18:27:43.563Z,50.90
2017-05-22T18:30:10.500Z,50.70
2017-05-22T18:32:37.525Z,50.80
2017-05-22T18:35:04.493Z,50.80
2017-05-22T18:37:31.416Z,51.10
2017-05-22T18:39:58.348Z,51.40
2017-05-22T18:42:25.378Z,51.90
2017-05-22T18:44:52.318Z,52.00
2017-05-22T18:47:19.245Z,52.00
2017-05-22T18:49:46.273Z,52.10
2017-05-22T18:52:13.213Z,52.30
2017-05-22T18:54:40.176Z,52.60
2017-05-22T18:57:07.124Z,52.90
2017-05-22T18:59:34.058Z,53.00
2017-05-22T19:02:01.032Z,52.90
2017-05-22T19:04:27.970Z,52.70
2017-05-22T19:06:54.907Z,52.90
2017-05-22T19:09:21.864Z,53.00
2017-05-22T19:11:48.788Z,53.10
2017-05-22T19:14:15.795Z,53.60
2017-05-22T19:16:42.786Z,53.70
2017-05-22T19:19:09.714Z,53.90
2017-05-22T19:21:36.638Z,54.00
2017-05-22T19:24:03.628Z,54.10
2017-05-22T19:26:30.553Z,54.70
2017-05-22T19:28:57.523Z,55.70
2017-05-22T19:31:24.548Z,56.00
2017-05-22T19:33:51.513Z,56.50
2017-05-22T19:36:18.448Z,57.00
2017-05-22T19:38:45.387Z,57.50
2017-05-22T19:41:12.361Z,57.30
2017-05-22T19:43:39.294Z,57.50
2017-05-22T19:46:06.827Z,57.60
2017-05-22T19:48:34.009Z,58.20
2017-05-22T19:51:00.941Z,58.10
2017-05-22T19:53:27.901Z,58.00
2017-05-22T19:55:54.825Z,58.40
2017-05-22T19:58:21.749Z,58.40
2017-05-22T20:00:48.722Z,58.80
2017-05-22T20:03:15.741Z,58.90
2017-05-22T20:05:42.669Z,59.30
2017-05-22T20:08:09.596Z,59.40
2017-05-22T20:10:36.597Z,59.50
2017-05-22T20:13:03.541Z,59.30
2017-05-22T20:15:30.497Z,59.40
2017-05-22T20:17:57.481Z,59.80
2017-05-22T20:20:24.411Z,60.50
2017-05-22T20:22:51.328Z,62.40
2017-05-22T20:25:18.296Z,62.70
2017-05-22T20:27:45.234Z,63.50
2017-05-22T20:30:12.181Z,63.90
2017-05-22T20:32:39.159Z,63.80
2017-05-22T20:35:06.084Z,64.30
2017-05-22T20:37:33.039Z,64.40
2017-05-22T20:39:59.986Z,64.90
2017-05-22T20:42:26.952Z,65.40
2017-05-22T20:44:53.910Z,66.30
2017-05-22T20:47:20.863Z,66.60
2017-05-22T20:49:47.829Z,67.50
2017-05-22T20:52:14.822Z,68.10
2017-05-22T20:54:41.748Z,68.60
2017-05-22T20:57:08.695Z,68.60
2017-05-22T20:59:35.643Z,69.00
2017-05-22T21:02:02.560Z,69.60
2017-05-22T21:04:29.473Z,70.00
2017-05-22T21:06:56.437Z,71.40
2017-05-22T21:09:23.365Z,72.40
2017-05-22T21:11:50.296Z,71.30
2017-05-22T21:14:17.253Z,71.60
2017-05-22T21:16:44.173Z,73.40
2017-05-22T21:19:11.093Z,74.20
2017-05-22T21:21:38.041Z,73.40
2017-05-22T21:24:04.968Z,73.30
2017-05-22T21:26:31.874Z,73.00
2017-05-22T21:28:58.824Z,72.70
2017-05-22T21:31:25.731Z,73.50
2017-05-22T21:33:52.696Z,73.80
2017-05-22T21:36:19.641Z,73.90
2017-05-22T21:38:46.572Z,73.60
2017-05-22T21:41:13.571Z,73.30
2017-05-22T21:43:40.504Z,73.30
2017-05-22T21:46:07.458Z,73.30
2017-05-22T21:48:34.417Z,73.20
2017-05-22T21:51:01.340Z,73.00
2017-05-22T21:53:28.257Z,73.10
2017-05-22T21:55:55.207Z,73.60
2017-05-22T21:58:22.125Z,73.70
2017-05-22T22:00:49.043Z,74.20
2017-05-22T22:03:15.979Z,74.70
2017-05-22T22:05:42.914Z,74.60
2017-05-22T22:08:09.864Z,75.90
2017-05-22T22:10:36.805Z,75.80
2017-05-22T22:13:03.736Z,75.60
2017-05-22T22:15:30.685Z,75.50
2017-05-22T22:17:57.614Z,75.60
2017-05-22T22:20:24.532Z,75.00
2017-05-22T22:22:51.508Z,74.60
2017-05-22T22:25:18.424Z,75.20
2017-05-22T22:27:45.390Z,75.70
2017-05-22T22:30:12.344Z,75.70
2017-05-22T22:32:39.328Z,75.90
2017-05-22T22:35:06.245Z,75.70
2017-05-22T22:37:33.185Z,75.70
2017-05-22T22:40:00.099Z,75.40
2017-05-22T22:42:27.940Z,75.60
2017-05-22T22:44:54.861Z,75.20
2017-05-22T22:47:21.773Z,75.00
2017-05-22T22:49:48.735Z,75.00
2017-05-22T22:52:15.662Z,75.70
2017-05-22T22:54:42.568Z,76.20
2017-05-22T22:57:09.564Z,77.10
2017-05-22T22:59:36.492Z,78.50
2017-05-22T23:02:03.412Z,80.40
2017-05-22T23:04:30.348Z,81.10
2017-05-22T23:06:57.271Z,81.50
2017-05-22T23:09:24.232Z,82.90
2017-05-22T23:11:51.141Z,83.60
2017-05-22T23:14:18.058Z,83.10
2017-05-22T23:16:45.020Z,82.50
2017-05-22T23:19:11.936Z,82.80
2017-05-22T23:21:38.846Z,83.70
2017-05-22T23:24:05.793Z,84.60
2017-05-22T23:26:32.717Z,84.70
2017-05-22T23:28:59.643Z,84.20
2017-05-22T23:31:26.579Z,83.80
2017-05-22T23:33:52.787Z,83.80
2017-05-22T23:36:19.709Z,84.20
2017-05-22T23:38:46.651Z,84.20
2017-05-22T23:41:13.564Z,84.30
2017-05-22T23:43:40.489Z,83.70
2017-05-22T23:46:07.424Z,82.70
2017-05-22T23:48:34.333Z,82.30
2017-05-22T23:51:01.285Z,82.00
2017-05-22T23:53:28.264Z,81.60
2017-05-22T23:55:55.250Z,81.50
2017-05-22T23:58:22.177Z,80.60
